Preview of NWS' New Version of Forecast
This preview is not operational and should not be used for support decisions.

Terminal Aerodrome Forecast (TAF)

Issued by National Weather Service (NWS)

                            
000
FTUS46 KSEW 171720
TAFBLI
TAF
KBLI 171720Z 1718/1818 16016G25KT P6SM -RA BKN025 OVC050
     FM172200 20014G22KT P6SM -SHRA BKN025 BKN050
     FM180600 18008KT P6SM VCSH BKN020 BKN050
     FM181200 18008KT P6SM OVC020
     FM181700 21010KT P6SM VCSH BKN025=